Smithfield, WV

1:50 PM EST on December 10, 2016 (GMT -0500)
Curtisville | | Change Station

Elev 1017 ft 39.52 °N, 80.44 °W | Updated 11 seconds ago

Overcast
Overcast
26.6 °F
Feels Like 22 °F
N
4.0
Wind Variable Wind from WNW

Today
High -- | Low -- °F
--% Chance of Precip.
Yesterday
High -- | Low -- °F
Precip. -- in
Pressure 30.51 in
Visibility 10.0 miles
Clouds Mostly Cloudy 2600 ft
Overcast 3400 ft
Windchill 22 °F
Dew Point 12 °F
Humidity 55%
Rainfall 0.00 in
Snow Depth Not available.
7:32 AM 4:58 PM
Waxing Gibbous, 85% visible
METAR KCKB 101753Z 26007KT 10SM BKN026 OVC034 M04/M11 A3047 RMK AO2 SNB35E46 SLP330 P0000 60000 T10391106 11039 21056 58014
Pressure 30.51 in
Visibility 10.0 miles
Clouds Mostly Cloudy 2600 ft
Overcast 3400 ft
Windchill 22 °F
Dew Point 12 °F
Humidity 55%
Rainfall 0.00 in
Snow Depth Not available.
7:32 AM 4:58 PM
Waxing Gibbous, 85% visible
METAR KCKB 101753Z 26007KT 10SM BKN026 OVC034 M04/M11 A3047 RMK AO2 SNB35E46 SLP330 P0000 60000 T10391106 11039 21056 58014

10-Day Weather Forecast

Almanac

Astronomy

Dec. 10, 2016 Rise Set
Actual Time
Civil Twilight
Nautical Twilight
Astronomical Twilight
Moon
Length of Visible Light
Length of Day
Tomorrow will be .
, % of the Moon is Illuminated

Today's Extremes

State Highs State Lows

Community

WunderPhotos

Upload Photos

1,956,620 photos uploaded!

WunderBlog® & News

Nearby

Air Quality

  Air Quality AQ Index Pollutant
Not available.

Snow Depth

Station Depth Elevation

Earthquake Activity

City Distance Mag. Time & Date
Minimum magnitude displayed is 2.5.

Coastal Water Temperatures

Place Temperature

Stations

Nearby Weather Stations

Station Location Temp. Windchill Dew Point Humidity Wind Precip. Elev Updated Type
                   

Watches & Warnings

There are currently no watches in effect.